createdAt,value
2023-04-05T00:00:20.822Z,94073.19
2023-04-05T00:02:49.312Z,94017.41
2023-04-05T00:05:29.340Z,94050.94
2023-04-05T00:07:57.845Z,94064.16
2023-04-05T00:10:25.993Z,94059.38
2023-04-05T00:12:54.273Z,94026.13
2023-04-05T00:15:24.407Z,94054.66
2023-04-05T00:17:54.198Z,94027.25
2023-04-05T00:20:22.562Z,94062.78
2023-04-05T00:22:51.008Z,94048.38
2023-04-05T00:25:19.391Z,94027.63
2023-04-05T00:27:47.560Z,94067.28
2023-04-05T00:30:20.799Z,94036.31
2023-04-05T00:32:50.884Z,94050.34
2023-04-05T00:35:19.102Z,94062.19
2023-04-05T00:37:47.070Z,94071.78
2023-04-05T00:40:15.301Z,94057.28
2023-04-05T00:42:43.142Z,94048.38
2023-04-05T00:45:11.709Z,94062.97
2023-04-05T00:47:40.055Z,94041.19
2023-04-05T00:50:12.358Z,94058.94
2023-04-05T00:52:41.789Z,94054.66
2023-04-05T00:55:12.004Z,94064.97
2023-04-05T00:57:40.246Z,94047.47
2023-04-05T01:00:12.431Z,94073.66
2023-04-05T01:02:46.355Z,94069.47
2023-04-05T01:05:30.238Z,94069.28
2023-04-05T01:08:06.914Z,94074.69
2023-04-05T01:10:39.937Z,94039.09
2023-04-05T01:13:08.857Z,94057.44
2023-04-05T01:15:36.765Z,94040.38
2023-04-05T01:18:06.113Z,94080.03
2023-04-05T01:20:40.777Z,94068.09
2023-04-05T01:23:38.657Z,94071.81
2023-04-05T01:26:57.753Z,94073.66
2023-04-05T01:29:50.582Z,94078.75
2023-04-05T01:32:45.197Z,94060.22
2023-04-05T01:35:20.329Z,94079.59
2023-04-05T01:37:54.521Z,94081.69
2023-04-05T01:40:23.715Z,94080.50
2023-04-05T01:42:51.685Z,94098.94
2023-04-05T01:45:21.034Z,94082.59
2023-04-05T01:47:49.112Z,94085.16
2023-04-05T01:50:17.176Z,94101.13
2023-04-05T01:52:45.109Z,94081.56
2023-04-05T01:55:13.022Z,94075.63
2023-04-05T01:57:40.978Z,94094.31
2023-04-05T02:00:10.715Z,94089.31
2023-04-05T02:02:40.025Z,94058.47
2023-04-05T02:05:08.921Z,94048.38
2023-04-05T02:07:36.906Z,94095.69
2023-04-05T02:10:05.269Z,94078.88
2023-04-05T02:12:33.288Z,94094.66
2023-04-05T02:15:01.864Z,94075.28
2023-04-05T02:17:34.027Z,94082.03
2023-04-05T02:20:05.695Z,94059.41
2023-04-05T02:22:33.603Z,94080.66
2023-04-05T02:25:01.568Z,94072.28
2023-04-05T02:27:29.488Z,94079.34
2023-04-05T02:29:57.790Z,94081.78
2023-04-05T02:32:26.469Z,94054.53
2023-04-05T02:34:54.542Z,94101.03
2023-04-05T02:37:25.895Z,94079.94
2023-04-05T02:39:54.179Z,94087.72
2023-04-05T02:42:22.170Z,94076.47
2023-04-05T02:44:50.541Z,94078.31
2023-04-05T02:47:21.657Z,94076.56
2023-04-05T02:49:49.994Z,94072.63
2023-04-05T02:52:18.265Z,94053.59
2023-04-05T02:54:47.769Z,94076.00
2023-04-05T02:57:16.294Z,94085.38
2023-04-05T02:59:44.205Z,94059.66
2023-04-05T03:02:12.107Z,94063.59
2023-04-05T03:04:41.049Z,94072.28
2023-04-05T03:07:10.553Z,94067.78
2023-04-05T03:09:38.651Z,94053.59
2023-04-05T03:12:08.166Z,94078.09
2023-04-05T03:14:36.422Z,94067.78
2023-04-05T03:17:04.412Z,94073.34
2023-04-05T03:19:32.929Z,94076.22
2023-04-05T03:22:00.903Z,94047.94
2023-04-05T03:24:28.775Z,94063.94
2023-04-05T03:26:56.759Z,94072.03
2023-04-05T03:29:26.211Z,94071.38
2023-04-05T03:31:54.283Z,94064.75
2023-04-05T03:34:23.153Z,94080.28
2023-04-05T03:36:51.062Z,94078.09
2023-04-05T03:39:18.985Z,94060.91
2023-04-05T03:41:46.945Z,94086.75
2023-04-05T03:44:14.830Z,94071.81
2023-04-05T03:46:44.164Z,94072.63
2023-04-05T03:49:12.072Z,94080.28
2023-04-05T03:51:39.978Z,94088.63
2023-04-05T03:54:07.851Z,94084.69
2023-04-05T03:56:35.737Z,94088.38
2023-04-05T03:59:03.774Z,94068.31
2023-04-05T04:01:31.844Z,94103.69
2023-04-05T04:04:01.491Z,94076.41
2023-04-05T04:06:30.863Z,94102.41
2023-04-05T04:08:59.028Z,94084.28
2023-04-05T04:11:27.304Z,94089.06
2023-04-05T04:13:55.322Z,94106.91
2023-04-05T04:16:23.405Z,94092.91
2023-04-05T04:18:54.241Z,94105.56
2023-04-05T04:21:25.070Z,94103.13
2023-04-05T04:23:53.619Z,94072.72
2023-04-05T04:26:29.238Z,94071.06
2023-04-05T04:28:57.822Z,94080.84
2023-04-05T04:31:25.971Z,94107.06
2023-04-05T04:33:55.497Z,94097.91
2023-04-05T04:36:34.702Z,94069.56
2023-04-05T04:39:05.478Z,94108.00
2023-04-05T04:41:38.817Z,94107.06
2023-04-05T04:44:06.932Z,94102.63
2023-04-05T04:46:42.855Z,94106.03
2023-04-05T04:49:11.258Z,94100.81
2023-04-05T04:51:40.657Z,94086.88
2023-04-05T04:54:08.712Z,94117.03
2023-04-05T04:56:36.742Z,94108.00
2023-04-05T04:59:04.729Z,94129.47
2023-04-05T05:01:34.250Z,94135.59
2023-04-05T05:04:04.170Z,94101.13
2023-04-05T05:06:32.196Z,94109.25
2023-04-05T05:09:01.996Z,94135.94
2023-04-05T05:11:30.098Z,94120.41
2023-04-05T05:13:58.070Z,94106.63
2023-04-05T05:16:26.916Z,94119.25
2023-04-05T05:18:55.451Z,94142.34
2023-04-05T05:21:23.357Z,94096.38
2023-04-05T05:23:51.686Z,94124.38
2023-04-05T05:26:21.637Z,94110.09
2023-04-05T05:28:50.076Z,94122.38
2023-04-05T05:31:19.548Z,94125.75
2023-04-05T05:33:50.068Z,94134.91
2023-04-05T05:36:19.967Z,94119.25
2023-04-05T05:38:49.170Z,94138.06
2023-04-05T05:41:17.149Z,94130.75
2023-04-05T05:43:46.511Z,94105.00
2023-04-05T05:46:14.700Z,94106.25
2023-04-05T05:48:43.155Z,94125.97
2023-04-05T05:51:11.123Z,94118.78
2023-04-05T05:53:39.992Z,94120.28
2023-04-05T05:56:08.319Z,94120.66
2023-04-05T05:58:36.838Z,94094.75
2023-04-05T06:01:07.616Z,94098.81
2023-04-05T06:03:35.838Z,94079.44
2023-04-05T06:06:06.188Z,94117.25
2023-04-05T06:08:34.096Z,94128.84
2023-04-05T06:11:02.133Z,94101.00
2023-04-05T06:13:30.143Z,94105.78
2023-04-05T06:15:58.117Z,94116.06
2023-04-05T06:18:29.700Z,94129.09
2023-04-05T06:20:58.142Z,94146.03
2023-04-05T06:23:26.063Z,94161.09
2023-04-05T06:25:54.070Z,94128.38
2023-04-05T06:28:22.029Z,94141.00
2023-04-05T06:30:49.911Z,94099.63
2023-04-05T06:33:17.841Z,94145.78
2023-04-05T06:35:48.119Z,94147.31
2023-04-05T06:38:16.195Z,94144.84
2023-04-05T06:40:44.411Z,94142.88
2023-04-05T06:43:12.402Z,94130.91
2023-04-05T06:45:40.373Z,94147.88
2023-04-05T06:48:09.217Z,94164.09
2023-04-05T06:50:37.117Z,94158.41
2023-04-05T06:53:07.164Z,94161.97
2023-04-05T06:55:35.153Z,94171.16
2023-04-05T06:58:03.063Z,94182.97
2023-04-05T07:00:30.953Z,94182.19
2023-04-05T07:02:58.973Z,94149.16
2023-04-05T07:05:27.498Z,94181.00
2023-04-05T07:07:55.476Z,94184.44
2023-04-05T07:10:24.809Z,94185.22
2023-04-05T07:12:52.971Z,94190.22
2023-04-05T07:15:21.095Z,94201.28
2023-04-05T07:17:49.076Z,94163.63
2023-04-05T07:20:17.394Z,94147.69
2023-04-05T07:22:46.543Z,94193.97
2023-04-05T07:25:14.482Z,94196.03
2023-04-05T07:27:45.011Z,94196.53
2023-04-05T07:30:14.376Z,94184.94
2023-04-05T07:32:42.526Z,94194.56
2023-04-05T07:35:11.127Z,94179.47
2023-04-05T07:37:39.313Z,94196.16
2023-04-05T07:40:08.681Z,94184.47
2023-04-05T07:42:36.692Z,94183.94
2023-04-05T07:45:07.711Z,94203.97
2023-04-05T07:47:36.328Z,94176.44
2023-04-05T07:50:04.723Z,94216.81
2023-04-05T07:52:32.711Z,94206.69
2023-04-05T07:55:00.715Z,94222.81
2023-04-05T07:57:28.719Z,94228.94
2023-04-05T07:59:56.833Z,94231.69
2023-04-05T08:02:26.136Z,94202.66
2023-04-05T08:04:54.197Z,94231.22
2023-04-05T08:07:22.207Z,94226.31
2023-04-05T08:09:50.147Z,94206.81
2023-04-05T08:12:18.188Z,94231.41
2023-04-05T08:14:46.214Z,94237.13
2023-04-05T08:17:14.847Z,94242.31
2023-04-05T08:19:44.303Z,94246.91
2023-04-05T08:22:12.902Z,94240.28
2023-04-05T08:24:40.895Z,94243.84
2023-04-05T08:27:08.863Z,94236.09
2023-04-05T08:29:37.159Z,94220.69
2023-04-05T08:32:05.451Z,94245.78
2023-04-05T08:34:34.725Z,94223.16
2023-04-05T08:37:04.021Z,94240.69
2023-04-05T08:39:34.285Z,94235.31
2023-04-05T08:42:18.744Z,94249.00
2023-04-05T08:44:48.140Z,94225.66
2023-04-05T08:47:21.078Z,94241.63
2023-04-05T08:49:49.070Z,94243.97
2023-04-05T08:52:18.510Z,94252.34
2023-04-05T08:54:49.620Z,94260.47
2023-04-05T08:57:20.216Z,94251.63
2023-04-05T08:59:48.994Z,94267.44
2023-04-05T09:02:21.997Z,94216.84
2023-04-05T09:04:50.635Z,94248.75
2023-04-05T09:07:21.619Z,94245.72
2023-04-05T09:09:57.193Z,94273.03
2023-04-05T09:12:27.035Z,94286.72
2023-04-05T09:14:55.424Z,94282.16
2023-04-05T09:17:24.399Z,94278.50
2023-04-05T09:19:56.476Z,94262.34
2023-04-05T09:22:25.844Z,94298.25
2023-04-05T09:24:53.840Z,94276.38
2023-04-05T09:27:22.282Z,94273.16
2023-04-05T09:29:51.471Z,94285.94
2023-04-05T09:32:21.465Z,94270.31
2023-04-05T09:34:52.495Z,94279.91
2023-04-05T09:37:22.813Z,94272.81
2023-04-05T09:40:02.934Z,94240.81
2023-04-05T09:42:35.419Z,94244.38
2023-04-05T09:45:05.265Z,94262.84
2023-04-05T09:47:35.332Z,94269.44
2023-04-05T09:50:06.532Z,94265.22
2023-04-05T09:52:35.762Z,94262.28
2023-04-05T09:55:06.899Z,94253.28
2023-04-05T09:57:36.025Z,94273.66
2023-04-05T10:00:05.959Z,94278.59
2023-04-05T10:02:38.016Z,94269.53
2023-04-05T10:05:08.090Z,94277.00
2023-04-05T10:07:36.976Z,94277.06
2023-04-05T10:10:07.706Z,94264.94
2023-04-05T10:12:39.843Z,94244.16
2023-04-05T10:15:10.832Z,94244.28
2023-04-05T10:17:49.301Z,94270.47
2023-04-05T10:20:19.718Z,94263.34
2023-04-05T10:23:09.269Z,94284.16
2023-04-05T10:25:51.633Z,94289.09
2023-04-05T10:28:30.262Z,94279.94
2023-04-05T10:31:09.455Z,94278.97
2023-04-05T10:33:45.463Z,94270.28
2023-04-05T10:36:24.609Z,94294.69
2023-04-05T10:39:04.183Z,94260.69
2023-04-05T10:41:36.775Z,94245.06
2023-04-05T10:44:18.548Z,94248.53
2023-04-05T10:46:54.913Z,94271.88
2023-04-05T10:49:30.395Z,94283.94
2023-04-05T10:51:59.777Z,94294.81
2023-04-05T10:54:28.463Z,94284.66
2023-04-05T10:56:58.631Z,94309.81
2023-04-05T10:59:27.803Z,94278.63
2023-04-05T11:01:56.673Z,94295.69
2023-04-05T11:04:25.209Z,94288.38
2023-04-05T11:07:14.808Z,94291.50
2023-04-05T11:09:53.584Z,94292.22
2023-04-05T11:13:02.415Z,94321.69
2023-04-05T11:15:31.764Z,94303.50
2023-04-05T11:18:04.618Z,94312.38
2023-04-05T11:20:42.996Z,94278.63
2023-04-05T11:23:11.607Z,94272.72
2023-04-05T11:25:41.520Z,94282.38
2023-04-05T11:28:11.717Z,94294.19
2023-04-05T11:30:51.530Z,94285.31
2023-04-05T11:33:57.652Z,94276.94
2023-04-05T11:36:42.000Z,94305.78
2023-04-05T11:39:29.047Z,94280.94
2023-04-05T11:42:03.082Z,94282.75
2023-04-05T11:44:42.053Z,94292.84
2023-04-05T11:47:11.469Z,94290.44
2023-04-05T11:49:40.247Z,94247.69
2023-04-05T11:52:12.817Z,94286.56
2023-04-05T11:54:46.114Z,94280.06
2023-04-05T11:57:16.735Z,94253.44
2023-04-05T11:59:46.598Z,94279.75
2023-04-05T12:02:14.540Z,94280.84
2023-04-05T12:04:42.556Z,94256.66
2023-04-05T12:07:15.852Z,94291.38
2023-04-05T12:10:03.883Z,94282.41
2023-04-05T12:12:36.593Z,94289.16
2023-04-05T12:15:08.599Z,94255.41
2023-04-05T12:17:40.854Z,94302.88
2023-04-05T12:20:10.135Z,94277.19
2023-04-05T12:22:39.077Z,94293.00
2023-04-05T12:25:08.582Z,94278.81
2023-04-05T12:27:36.915Z,94290.72
2023-04-05T12:30:15.936Z,94271.03
2023-04-05T12:32:48.543Z,94274.84
2023-04-05T12:35:21.906Z,94276.00
2023-04-05T12:37:52.466Z,94261.97
2023-04-05T12:40:24.827Z,94296.47
2023-04-05T12:42:53.405Z,94305.19
2023-04-05T12:45:24.922Z,94286.00
2023-04-05T12:47:54.290Z,94287.81
2023-04-05T12:50:28.955Z,94254.88
2023-04-05T12:52:58.609Z,94297.59
2023-04-05T12:55:28.130Z,94288.38
2023-04-05T12:57:59.494Z,94287.16
2023-04-05T13:00:30.928Z,94290.22
2023-04-05T13:03:00.888Z,94296.13
2023-04-05T13:05:30.448Z,94296.00
2023-04-05T13:07:58.540Z,94291.03
2023-04-05T13:10:27.584Z,94294.22
2023-04-05T13:12:55.750Z,94279.41
2023-04-05T13:15:23.942Z,94267.66
2023-04-05T13:17:55.032Z,94290.38
2023-04-05T13:20:23.133Z,94282.41
2023-04-05T13:22:51.549Z,94277.66
2023-04-05T13:25:19.629Z,94259.31
2023-04-05T13:27:47.650Z,94276.16
2023-04-05T13:30:18.384Z,94280.19
2023-04-05T13:32:46.582Z,94298.25
2023-04-05T13:35:16.581Z,94292.50
2023-04-05T13:37:44.482Z,94282.00
2023-04-05T13:40:12.864Z,94287.75
2023-04-05T13:42:40.826Z,94285.19
2023-04-05T13:45:09.379Z,94286.00
2023-04-05T13:47:37.415Z,94284.72
2023-04-05T13:50:06.997Z,94292.09
2023-04-05T13:52:37.644Z,94301.69
2023-04-05T13:55:06.985Z,94285.91
2023-04-05T13:57:34.974Z,94283.25
2023-04-05T14:00:03.221Z,94273.00
2023-04-05T14:02:32.005Z,94293.56
2023-04-05T14:05:00.145Z,94300.72
2023-04-05T14:07:28.670Z,94309.78
2023-04-05T14:09:58.704Z,94297.13
2023-04-05T14:12:26.894Z,94303.34
2023-04-05T14:14:55.266Z,94307.63
2023-04-05T14:17:23.294Z,94327.31
2023-04-05T14:19:51.282Z,94301.59
2023-04-05T14:22:19.378Z,94294.25
2023-04-05T14:24:48.730Z,94318.31
2023-04-05T14:27:18.422Z,94318.16
2023-04-05T14:29:46.723Z,94322.72
2023-04-05T14:32:14.741Z,94319.59
2023-04-05T14:34:42.836Z,94331.56
2023-04-05T14:37:11.011Z,94318.94
2023-04-05T14:39:38.991Z,94305.34
2023-04-05T14:42:07.498Z,94335.78
2023-04-05T14:44:37.672Z,94302.69
2023-04-05T14:47:05.759Z,94296.13
2023-04-05T14:49:33.668Z,94326.75
2023-04-05T14:52:02.511Z,94330.72
2023-04-05T14:54:30.460Z,94333.56
2023-04-05T14:56:58.612Z,94325.06
2023-04-05T14:59:26.619Z,94329.56
2023-04-05T15:01:56.488Z,94318.97
2023-04-05T15:04:24.572Z,94345.31
2023-04-05T15:06:52.561Z,94343.91
2023-04-05T15:09:20.441Z,94346.69
2023-04-05T15:11:48.424Z,94351.00
2023-04-05T15:14:24.819Z,94341.53
2023-04-05T15:17:01.385Z,94353.53
2023-04-05T15:19:30.759Z,94353.56
2023-04-05T15:21:58.799Z,94345.09
2023-04-05T15:24:26.924Z,94349.91
2023-04-05T15:26:58.544Z,94344.06
2023-04-05T15:29:26.478Z,94345.16
2023-04-05T15:32:13.402Z,94364.03
2023-04-05T15:34:41.911Z,94350.72
2023-04-05T15:37:10.274Z,94351.81
2023-04-05T15:39:38.430Z,94367.81
2023-04-05T15:42:07.078Z,94355.47
2023-04-05T15:44:35.107Z,94337.84
2023-04-05T15:47:04.437Z,94333.63
2023-04-05T15:49:32.329Z,94355.22
2023-04-05T15:52:00.676Z,94349.03
2023-04-05T15:54:28.625Z,94361.72
2023-04-05T15:56:56.736Z,94357.56
2023-04-05T15:59:26.134Z,94359.63
2023-04-05T16:01:54.170Z,94352.19
2023-04-05T16:04:24.660Z,94353.09
2023-04-05T16:06:52.569Z,94358.13
2023-04-05T16:09:21.939Z,94358.19
2023-04-05T16:11:50.089Z,94370.56
2023-04-05T16:14:18.059Z,94379.00
2023-04-05T16:16:53.776Z,94359.47
2023-04-05T16:19:23.713Z,94358.81
2023-04-05T16:21:52.928Z,94365.09
2023-04-05T16:24:21.207Z,94362.75
2023-04-05T16:26:49.611Z,94366.38
2023-04-05T16:29:17.806Z,94369.72
2023-04-05T16:31:47.528Z,94351.84
2023-04-05T16:34:16.297Z,94364.88
2023-04-05T16:36:45.744Z,94339.53
2023-04-05T16:39:13.691Z,94374.16
2023-04-05T16:41:41.663Z,94376.84
2023-04-05T16:44:10.388Z,94357.06
2023-04-05T16:46:38.478Z,94350.81
2023-04-05T16:49:06.413Z,94365.19
2023-04-05T16:51:36.569Z,94335.47
2023-04-05T16:54:06.201Z,94301.16
2023-04-05T16:56:34.245Z,94365.78
2023-04-05T16:59:04.947Z,94363.47
2023-04-05T17:01:34.786Z,94355.06
2023-04-05T17:04:02.885Z,94360.88
2023-04-05T17:06:31.972Z,94359.94
2023-04-05T17:08:59.961Z,94380.16
2023-04-05T17:11:29.364Z,94363.03
2023-04-05T17:14:01.568Z,94359.88
2023-04-05T17:16:29.585Z,94361.78
2023-04-05T17:18:57.585Z,94385.59
2023-04-05T17:21:25.961Z,94367.91
2023-04-05T17:23:53.926Z,94383.38
2023-04-05T17:26:23.269Z,94378.06
2023-04-05T17:28:52.655Z,94386.66
2023-04-05T17:31:21.044Z,94378.63
2023-04-05T17:33:49.572Z,94376.16
2023-04-05T17:36:17.849Z,94349.75
2023-04-05T17:38:45.881Z,94375.94
2023-04-05T17:41:14.170Z,94380.34
2023-04-05T17:43:44.533Z,94371.50
2023-04-05T17:46:27.295Z,94324.56
2023-04-05T17:48:58.693Z,94385.25
2023-04-05T17:51:27.416Z,94371.28
2023-04-05T17:53:55.633Z,94394.31
2023-04-05T17:56:24.246Z,94384.31
2023-04-05T17:58:52.568Z,94384.28
2023-04-05T18:01:22.337Z,94360.22
2023-04-05T18:03:51.280Z,94400.19
2023-04-05T18:06:20.450Z,94393.94
2023-04-05T18:08:48.831Z,94381.72
2023-04-05T18:11:17.092Z,94398.09
2023-04-05T18:13:45.079Z,94405.09
2023-04-05T18:16:13.689Z,94385.44
2023-04-05T18:18:43.378Z,94401.25
2023-04-05T18:21:11.341Z,94418.28
2023-04-05T18:23:40.311Z,94404.19
2023-04-05T18:26:08.699Z,94402.09
2023-04-05T18:28:36.767Z,94378.78
2023-04-05T18:31:04.877Z,94411.59
2023-04-05T18:33:37.861Z,94409.28
2023-04-05T18:36:07.839Z,94386.47
2023-04-05T18:38:35.913Z,94414.91
2023-04-05T18:41:04.733Z,94396.84
2023-04-05T18:43:32.906Z,94383.97
2023-04-05T18:46:01.089Z,94428.63
2023-04-05T18:48:29.437Z,94418.50
2023-04-05T18:51:04.794Z,94419.00
2023-04-05T18:53:34.956Z,94388.75
2023-04-05T18:56:03.370Z,94392.00
2023-04-05T18:58:33.720Z,94441.97
2023-04-05T19:01:06.824Z,94407.72
2023-04-05T19:03:39.785Z,94420.41
2023-04-05T19:06:09.924Z,94403.41
2023-04-05T19:08:39.778Z,94361.28
2023-04-05T19:11:13.924Z,94415.50
2023-04-05T19:13:42.700Z,94432.84
2023-04-05T19:16:12.975Z,94423.66
2023-04-05T19:18:40.942Z,94392.09
2023-04-05T19:21:09.492Z,94387.91
2023-04-05T19:23:38.720Z,94411.91
2023-04-05T19:26:08.108Z,94417.44
2023-04-05T19:28:36.318Z,94420.28
2023-04-05T19:31:04.376Z,94419.88
2023-04-05T19:33:36.154Z,94376.91
2023-04-05T19:36:04.877Z,94396.13
2023-04-05T19:38:33.012Z,94382.19
2023-04-05T19:41:01.340Z,94414.38
2023-04-05T19:43:31.902Z,94388.09
2023-04-05T19:46:01.569Z,94397.16
2023-04-05T19:48:37.668Z,94408.78
2023-04-05T19:51:07.349Z,94380.91
2023-04-05T19:53:48.031Z,94371.81
2023-04-05T19:56:20.351Z,94388.25
2023-04-05T19:58:51.318Z,94393.13
2023-04-05T20:01:30.808Z,94364.03
2023-04-05T20:04:01.438Z,94381.72
2023-04-05T20:06:33.558Z,94385.00
2023-04-05T20:09:06.046Z,94356.38
2023-04-05T20:11:34.877Z,94352.09
2023-04-05T20:14:06.904Z,94366.88
2023-04-05T20:16:37.727Z,94378.25
2023-04-05T20:19:08.172Z,94328.91
2023-04-05T20:21:37.773Z,94358.34
2023-04-05T20:24:09.921Z,94360.06
2023-04-05T20:26:37.893Z,94368.09
2023-04-05T20:29:09.259Z,94383.59
2023-04-05T20:31:40.119Z,94387.59
2023-04-05T20:34:11.768Z,94390.16
2023-04-05T20:36:48.741Z,94391.06
2023-04-05T20:39:17.861Z,94411.59
2023-04-05T20:41:46.243Z,94388.56
2023-04-05T20:44:15.992Z,94394.66
2023-04-05T20:46:44.017Z,94398.13
2023-04-05T20:49:12.956Z,94409.75
2023-04-05T20:51:47.011Z,94381.22
2023-04-05T20:54:15.238Z,94405.66
2023-04-05T20:56:44.123Z,94400.66
2023-04-05T20:59:12.418Z,94383.34
2023-04-05T21:01:43.040Z,94405.34
2023-04-05T21:32:59.362Z,94362.63
2023-04-05T21:35:28.781Z,94410.88
2023-04-05T21:37:56.766Z,94407.31
2023-04-05T21:40:24.960Z,94411.28
2023-04-05T21:42:52.991Z,94412.31
2023-04-05T21:45:20.945Z,94404.97
2023-04-05T21:47:49.037Z,94409.78
2023-04-05T21:50:17.147Z,94410.69
2023-04-05T21:52:46.508Z,94404.91
2023-04-05T21:55:14.803Z,94394.19
2023-04-05T21:57:43.817Z,94396.41
2023-04-05T22:00:12.552Z,94413.34
2023-04-05T22:02:40.942Z,94424.25
2023-04-05T22:05:09.992Z,94398.25
2023-04-05T22:07:38.175Z,94391.72
2023-04-05T22:10:10.406Z,94380.81
2023-04-05T22:12:38.475Z,94371.88
2023-04-05T22:15:08.531Z,94394.94
2023-04-05T22:17:37.325Z,94385.41
2023-04-05T22:20:06.195Z,94409.13
2023-04-05T22:22:34.107Z,94390.63
2023-04-05T22:25:02.072Z,94389.13
2023-04-05T22:27:31.382Z,94386.81
2023-04-05T22:30:00.255Z,94360.13
2023-04-05T22:32:28.267Z,94382.38
2023-04-05T22:34:56.720Z,94374.13
2023-04-05T22:37:24.730Z,94367.41
2023-04-05T22:39:52.742Z,94371.19
2023-04-05T22:42:20.890Z,94384.88
2023-04-05T22:44:50.208Z,94344.53
2023-04-05T22:47:18.139Z,94366.81
2023-04-05T22:49:46.061Z,94368.53
2023-04-05T22:52:13.975Z,94359.25
2023-04-05T22:54:41.963Z,94361.13
2023-04-05T22:57:11.326Z,94357.41
2023-04-05T22:59:39.843Z,94353.94
2023-04-05T23:02:09.576Z,94351.81
2023-04-05T23:04:37.566Z,94353.78
2023-04-05T23:07:05.713Z,94367.13
2023-04-05T23:09:33.678Z,94347.53
2023-04-05T23:12:01.631Z,94309.78
2023-04-05T23:14:29.559Z,94343.25
2023-04-05T23:16:57.506Z,94341.38
2023-04-05T23:19:27.066Z,94336.28
2023-04-05T23:21:55.607Z,94338.84
2023-04-05T23:24:23.568Z,94344.16
2023-04-05T23:26:51.572Z,94344.47
2023-04-05T23:29:19.716Z,94295.97
2023-04-05T23:31:48.519Z,94334.03
2023-04-05T23:34:16.929Z,94304.38
2023-04-05T23:36:46.381Z,94329.72
2023-04-05T23:39:14.456Z,94329.03
2023-04-05T23:41:42.402Z,94330.97
2023-04-05T23:44:10.493Z,94300.81
2023-04-05T23:46:41.304Z,94309.31
2023-04-05T23:49:09.488Z,94312.34
2023-04-05T23:51:37.586Z,94309.00
2023-04-05T23:54:06.967Z,94327.09
2023-04-05T23:56:41.512Z,94313.38
2023-04-05T23:59:09.695Z,94314.91
